Etusivu
METAR-TAF:

METAR-TAF

Lentoasemat :

Naval Air Station Whiting Field North

Milton, Florida, Yhdysvallat

Leveyspiiri: 30-44-00N, Pituuspiiri: 087-01-00W, korkeus merenpinnasta: 60 m

Tämänhetkinen sää

Tämä raportti tehtiin 21 minuuttia sitten, kello 08.56 UTC
Tuuli 3 kn pohjoisesta/koillisesta
Lämpötila 2°C
Kosteus 69%
Ilmanpaine 1030 hPa
Näkyvyys: 16.1 km
selkeää

METAR: KNSE 080856Z AUTO 02003KT 10SM CLR 02/M03 A3043 RMK AO2 SLP293 6//// T00221028 51002 PNO $

Aika: 03:17 (09:17 UTC)

Sääennuste

Ennuste voimassa 08. päivästä klo 07 UTC - 09. päivään klo 07 UTC
Tuuli 6 kn eri suunnista
Näkyvyys: 0810 m
selkeää

TAF: KNSE 0807/0907 VRB06KT 9999 SKC QNH3038INS AUTOMATED SENSOR METWATCH 0807 UNTIL 0810 T07/0812Z T20/0821Z FN00200

Säähavainnot ja -ennusteet yli 4000 lentoasemalta (METAR- ja TAF-raportit).

Käytössä olevat sääasemat on merkitty karttaan keltaisilla ja punaisilla pisteillä.

Aseta hiiri pisteen päälle nähdäksesi sääaseman nimen.

Klikkaa sitten nähdäksesi säähavainnot ja -ennusteet.

Kartan vaihtaminen: klikkaa mustalla rastilla varustettuja vihreitä pisteitä, niin voit zoomata sisään; viivalla varustettua vihreää pistettä, niin voit zoomata ulos tai vihreitä nuolia, niin pääset viereisille kartoille.


METAR-TAF: